Time;durP1;ratioP1;P1;durP2;ratioP2;P2;SDS_P1;SDS_P2;PMS_P1;PMS_P2;Temp;Humidity;BMP_temperature;BMP_pressure;BME280_temperature;BME280_humidity;BME280_pressure;Samples;Min_cycle;Max_cycle;Signal;HPM_P1;HPM_P2
2023/08/30 00:00:46;;;;;;;0.52;0.52;;;;;;;14.88;100.00;98860.06;4972360;28;20065;-92
2023/08/30 00:03:12;;;;;;;0.00;0.00;;;;;;;14.84;100.00;98853.94;5001589;28;20189;-91
2023/08/30 00:05:42;;;;;;;0.20;0.20;;;;;;;14.86;100.00;98865.38;4972700;28;20070;-91
2023/08/30 00:08:08;;;;;;;0.00;0.00;;;;;;;14.88;100.00;98865.66;4988569;28;20066;-91
2023/08/30 00:10:33;;;;;;;0.00;0.00;;;;;;;14.76;100.00;98852.84;4971845;28;20022;-91
2023/08/30 00:12:59;;;;;;;0.00;0.00;;;;;;;14.83;100.00;98880.34;4972309;28;20030;-92
2023/08/30 00:15:25;;;;;;;0.30;0.30;;;;;;;14.84;100.00;98876.28;4954445;28;20053;-91
2023/08/30 00:17:54;;;;;;;0.10;0.10;;;;;;;14.85;100.00;98883.38;4955685;28;20038;-91
2023/08/30 00:20:20;;;;;;;0.10;0.10;;;;;;;14.85;100.00;98882.63;4955699;28;20564;-91
2023/08/30 00:22:48;;;;;;;0.13;0.13;;;;;;;14.89;100.00;98886.72;4971959;28;20038;-91
2023/08/30 00:25:15;;;;;;;0.13;0.13;;;;;;;14.85;100.00;98883.38;4971213;28;20026;-91
2023/08/30 00:27:41;;;;;;;1.02;0.90;;;;;;;14.82;100.00;98876.00;4956610;28;20034;-91
2023/08/30 00:30:08;;;;;;;0.00;0.00;;;;;;;14.89;100.00;98888.75;4988330;28;20045;-91
2023/08/30 00:32:34;;;;;;;0.20;0.20;;;;;;;14.90;100.00;98895.88;4986375;28;20042;-91
2023/08/30 00:35:00;;;;;;;0.20;0.20;;;;;;;14.82;100.00;98884.38;4971781;28;20466;-90
2023/08/30 00:37:25;;;;;;;0.10;0.10;;;;;;;14.85;100.00;98886.19;4972166;28;20038;-90
2023/08/30 00:39:51;;;;;;;0.38;0.32;;;;;;;14.84;100.00;98898.59;4986765;28;20027;-90
2023/08/30 00:42:16;;;;;;;0.00;0.00;;;;;;;14.75;100.00;98884.84;4971813;28;20034;-91
2023/08/30 00:44:42;;;;;;;0.00;0.00;;;;;;;14.71;100.00;98881.50;4988659;28;20535;-91
2023/08/30 00:47:07;;;;;;;0.22;0.20;;;;;;;14.62;100.00;98875.31;4971180;28;20034;-90
2023/08/30 00:49:33;;;;;;;0.35;0.35;;;;;;;14.58;100.00;98860.81;5004321;28;20080;-90
2023/08/30 00:52:02;;;;;;;1.23;0.35;;;;;;;14.56;100.00;98878.03;4993360;28;20156;-90
2023/08/30 00:54:27;;;;;;;0.32;0.32;;;;;;;14.56;100.00;98872.44;4988384;28;20124;-90
2023/08/30 00:56:54;;;;;;;0.40;0.40;;;;;;;14.53;100.00;98867.84;4971370;28;20517;-90
2023/08/30 00:59:20;;;;;;;0.00;0.00;;;;;;;14.48;100.00;98871.34;4954383;28;20034;-90
2023/08/30 01:01:46;;;;;;;0.00;0.00;;;;;;;14.43;100.00;98863.72;4965348;28;20034;-90
2023/08/30 01:04:11;;;;;;;0.00;0.00;;;;;;;14.37;100.00;98860.09;4963187;28;20495;-90
2023/08/30 01:06:37;;;;;;;0.32;0.32;;;;;;;14.33;100.00;98860.28;4971477;28;20034;-90
2023/08/30 01:09:05;;;;;;;0.52;0.52;;;;;;;14.31;100.00;98856.44;4972314;28;20129;-90
2023/08/30 01:11:47;;;;;;;0.32;0.32;;;;;;;14.31;100.00;98862.78;4996721;28;20034;-89
2023/08/30 01:14:26;;;;;;;0.20;0.20;;;;;;;14.27;100.00;98861.47;4968716;28;20046;-90
2023/08/30 01:16:52;;;;;;;0.20;0.20;;;;;;;14.28;100.00;98855.38;4967605;28;20121;-90
2023/08/30 01:19:18;;;;;;;0.00;0.00;;;;;;;14.24;100.00;98854.84;4954012;28;20042;-89
2023/08/30 01:22:04;;;;;;;0.30;0.15;;;;;;;14.19;100.00;98861.13;4986512;28;20034;-90
2023/08/30 01:24:40;;;;;;;0.00;0.00;;;;;;;14.15;100.00;98845.88;5003305;28;20026;-89
2023/08/30 01:27:10;;;;;;;0.00;0.00;;;;;;;14.15;100.00;98854.25;4956866;28;20126;-90
2023/08/30 01:29:40;;;;;;;0.20;0.20;;;;;;;14.17;100.00;98841.31;4992051;28;20040;-89
2023/08/30 01:32:08;;;;;;;0.00;0.00;;;;;;;14.17;100.00;98846.13;4959217;28;20050;-90
2023/08/30 01:34:34;;;;;;;0.00;0.00;;;;;;;14.13;100.00;98845.59;4991485;28;20040;-90
2023/08/30 01:37:00;;;;;;;0.30;0.20;;;;;;;14.06;100.00;98832.84;4991316;28;20505;-90
2023/08/30 01:39:26;;;;;;;0.40;0.40;;;;;;;14.08;100.00;98840.69;4959489;28;20478;-90
2023/08/30 01:41:58;;;;;;;0.28;0.20;;;;;;;14.06;100.00;98834.88;4970582;28;20129;-91
2023/08/30 01:44:26;;;;;;;0.45;0.30;;;;;;;14.02;100.00;98833.06;4976607;28;20532;-90
2023/08/30 01:46:52;;;;;;;0.00;0.00;;;;;;;14.02;100.00;98833.06;4975266;28;20030;-91
2023/08/30 01:49:17;;;;;;;0.60;0.43;;;;;;;14.02;100.00;98847.00;4957056;28;20041;-92
2023/08/30 01:51:43;;;;;;;0.20;0.20;;;;;;;14.01;100.00;98848.25;4957632;28;20367;-91
2023/08/30 01:54:11;;;;;;;0.03;0.03;;;;;;;14.06;100.00;98857.94;5007227;28;20069;-91
2023/08/30 01:56:38;;;;;;;0.00;0.00;;;;;;;14.03;100.00;98854.09;4973100;28;20062;-92
2023/08/30 01:59:04;;;;;;;6.60;0.43;;;;;;;14.03;100.00;98850.56;5001393;28;20568;-91
2023/08/30 02:01:29;;;;;;;0.00;0.00;;;;;;;14.03;100.00;98850.56;5001490;28;20025;-91
2023/08/30 02:03:55;;;;;;;1.98;0.20;;;;;;;14.02;100.00;98852.56;4957883;28;20375;-91
2023/08/30 02:06:32;;;;;;;0.00;0.00;;;;;;;14.02;100.00;98852.56;4991039;28;20084;-92
2023/08/30 02:09:40;;;;;;;0.63;0.63;;;;;;;13.98;100.00;98852.03;5009655;28;20030;-92
2023/08/30 02:12:13;;;;;;;0.05;0.05;;;;;;;13.98;100.00;98852.03;4981586;28;20046;-91
2023/08/30 02:14:39;;;;;;;0.08;0.08;;;;;;;14.06;100.00;98857.16;4974684;28;20038;-91
2023/08/30 02:17:05;;;;;;;0.13;0.13;;;;;;;14.05;100.00;98855.63;4953264;28;20270;-92
2023/08/30 02:19:32;;;;;;;0.13;0.13;;;;;;;14.05;100.00;98850.06;4966832;28;20500;-91
2023/08/30 02:21:59;;;;;;;0.15;0.15;;;;;;;14.08;100.00;98854.63;4985725;28;20049;-92
2023/08/30 02:24:24;;;;;;;0.98;0.80;;;;;;;14.08;100.00;98849.84;4974560;28;20026;-92
2023/08/30 02:26:49;;;;;;;0.10;0.10;;;;;;;14.12;100.00;98844.03;4958136;28;20037;-91
2023/08/30 02:29:15;;;;;;;0.10;0.10;;;;;;;14.10;100.00;98829.84;4958554;28;20034;-91
2023/08/30 02:31:41;;;;;;;0.10;0.10;;;;;;;14.09;100.00;98839.44;4957996;28;20411;-92
2023/08/30 02:34:06;;;;;;;0.10;0.10;;;;;;;14.12;100.00;98838.47;4969586;28;20098;-91
2023/08/30 02:36:32;;;;;;;0.00;0.00;;;;;;;14.04;100.00;98826.97;4982931;28;20065;-91
2023/08/30 02:38:58;;;;;;;0.03;0.03;;;;;;;14.09;100.00;98819.94;4991150;28;20613;-91
2023/08/30 02:41:23;;;;;;;0.10;0.10;;;;;;;14.08;100.00;98826.75;4973414;28;20126;-91
2023/08/30 02:43:49;;;;;;;0.20;0.20;;;;;;;14.12;100.00;98827.31;4958416;28;20041;-91
2023/08/30 02:46:14;;;;;;;0.00;0.00;;;;;;;14.17;100.00;98827.38;4957716;28;20026;-91
2023/08/30 02:48:40;;;;;;;0.00;0.00;;;;;;;14.07;100.00;98809.28;4989344;28;20522;-91
2023/08/30 02:51:07;;;;;;;0.40;0.15;;;;;;;14.15;100.00;98821.53;5001085;28;20046;-90
2023/08/30 02:53:32;;;;;;;0.10;0.10;;;;;;;14.20;100.00;98820.81;4989583;28;20037;-91
2023/08/30 02:55:58;;;;;;;1.42;0.15;;;;;;;14.19;100.00;98821.31;4958337;28;20101;-92
2023/08/30 02:58:24;;;;;;;0.00;0.00;;;;;;;14.22;100.00;98820.34;4973817;28;20048;-92
2023/08/30 03:00:53;;;;;;;0.30;0.08;;;;;;;14.19;100.00;98815.75;4974081;28;20495;-92
2023/08/30 03:03:18;;;;;;;0.20;0.20;;;;;;;14.17;100.00;98812.66;4974514;28;20034;-91
2023/08/30 03:05:44;;;;;;;0.30;0.30;;;;;;;14.26;100.00;98820.88;4974668;28;20089;-90
2023/08/30 03:08:09;;;;;;;0.10;0.10;;;;;;;14.25;100.00;98822.13;4974615;28;20039;-91
2023/08/30 03:10:35;;;;;;;0.00;0.00;;;;;;;14.23;100.00;98821.88;4959831;28;20027;-92
2023/08/30 03:13:01;;;;;;;0.20;0.20;;;;;;;14.26;100.00;98818.88;4988116;28;20035;-92
2023/08/30 03:15:26;;;;;;;0.00;0.00;;;;;;;14.28;100.00;98830.28;4973946;28;20030;-91
2023/08/30 03:17:52;;;;;;;0.00;0.00;;;;;;;14.29;100.00;98836.63;4971696;28;20038;-92
2023/08/30 03:20:17;;;;;;;0.22;0.10;;;;;;;14.26;100.00;98832.03;4972982;28;20117;-91
2023/08/30 03:22:43;;;;;;;0.10;0.10;;;;;;;14.21;100.00;98825.16;4956990;28;20022;-90
2023/08/30 03:25:09;;;;;;;0.00;0.00;;;;;;;14.24;100.00;98834.53;4975172;28;20034;-91
2023/08/30 03:27:35;;;;;;;0.20;0.20;;;;;;;14.24;100.00;98835.31;4956702;28;20030;-90
2023/08/30 03:30:03;;;;;;;0.10;0.10;;;;;;;14.26;100.00;98830.03;4962127;28;20038;-92
2023/08/30 03:32:32;;;;;;;0.13;0.13;;;;;;;14.23;100.00;98838.63;4957770;28;20038;-90
2023/08/30 03:34:59;;;;;;;0.00;0.00;;;;;;;14.21;100.00;98838.31;4957786;28;20039;-91
2023/08/30 03:37:24;;;;;;;0.47;0.45;;;;;;;14.23;100.00;98841.41;4956293;28;20042;-90
2023/08/30 03:39:50;;;;;;;0.10;0.10;;;;;;;14.26;100.00;98848.78;4966743;28;20022;-91
2023/08/30 03:42:15;;;;;;;0.15;0.15;;;;;;;14.27;100.00;98845.50;4965092;28;20035;-90
2023/08/30 03:44:41;;;;;;;0.10;0.10;;;;;;;14.30;100.00;98854.91;4988099;28;20046;-91
2023/08/30 03:47:07;;;;;;;0.13;0.13;;;;;;;14.29;100.00;98847.78;4968921;28;20280;-90
2023/08/30 03:49:33;;;;;;;0.00;0.00;;;;;;;14.30;100.00;98843.75;4970285;28;20835;-90
2023/08/30 03:51:58;;;;;;;0.00;0.00;;;;;;;14.27;100.00;98828.00;4971779;28;20133;-91
2023/08/30 03:54:24;;;;;;;0.75;0.75;;;;;;;14.27;100.00;98828.00;4998356;28;20513;-92
2023/08/30 03:56:51;;;;;;;0.35;0.13;;;;;;;14.34;100.00;98833.16;4967615;28;20415;-91
2023/08/30 03:59:16;;;;;;;0.20;0.20;;;;;;;14.33;100.00;98839.97;4956458;28;20093;-91
2023/08/30 04:01:43;;;;;;;0.10;0.10;;;;;;;14.30;100.00;98843.75;4952889;28;20564;-92
2023/08/30 04:04:10;;;;;;;0.00;0.00;;;;;;;14.30;100.00;98849.34;4954946;28;20034;-92
2023/08/30 04:06:35;;;;;;;0.20;0.13;;;;;;;14.37;100.00;98849.69;4989402;28;20038;-90
2023/08/30 04:09:01;;;;;;;0.00;0.00;;;;;;;14.33;100.00;98853.91;4955609;28;20070;-93
2023/08/30 04:11:26;;;;;;;0.05;0.05;;;;;;;14.38;100.00;98848.44;4954632;28;20038;-91
2023/08/30 04:13:52;;;;;;;0.00;0.00;;;;;;;14.32;100.00;98830.06;4987208;28;20057;-91
2023/08/30 04:16:18;;;;;;;0.15;0.15;;;;;;;14.36;100.00;98842.56;4956768;28;20391;-92
2023/08/30 04:18:44;;;;;;;0.00;0.00;;;;;;;14.47;100.00;98855.88;4956656;28;20058;-91
2023/08/30 04:21:10;;;;;;;0.10;0.10;;;;;;;14.48;100.00;98853.88;4988864;28;20637;-92
2023/08/30 04:23:36;;;;;;;0.30;0.30;;;;;;;14.50;100.00;98857.69;4956693;28;20033;-91
2023/08/30 04:26:01;;;;;;;0.20;0.10;;;;;;;14.49;100.00;98853.34;4956651;28;20068;-91
2023/08/30 04:28:28;;;;;;;0.00;0.00;;;;;;;14.59;100.00;98865.91;4972349;28;20461;-92
2023/08/30 04:30:54;;;;;;;0.43;0.43;;;;;;;14.55;100.00;98865.34;4956553;28;20030;-92
2023/08/30 04:33:20;;;;;;;0.10;0.10;;;;;;;14.57;100.00;98867.63;4957157;28;20554;-91
2023/08/30 04:35:50;;;;;;;0.60;0.50;;;;;;;14.70;100.00;98888.34;4956259;28;20141;-90
2023/08/30 04:38:17;;;;;;;0.00;0.00;;;;;;;14.67;100.00;98874.59;4984365;28;20109;-92
2023/08/30 04:40:44;;;;;;;0.00;0.00;;;;;;;14.67;100.00;98880.19;4962216;28;20057;-91
2023/08/30 04:43:13;;;;;;;0.17;0.17;;;;;;;14.76;100.00;98891.94;4961441;28;20521;-91
2023/08/30 04:45:38;;;;;;;0.00;0.00;;;;;;;14.72;100.00;98880.22;4956051;28;20117;-91
2023/08/30 04:48:06;;;;;;;0.10;0.10;;;;;;;14.69;100.00;98869.28;4973505;28;20025;-91
2023/08/30 04:50:32;;;;;;;0.00;0.00;;;;;;;14.78;100.00;98895.00;4972480;28;20037;-91
2023/08/30 04:52:57;;;;;;;0.05;0.05;;;;;;;14.77;100.00;98899.06;4961096;28;20038;-91
2023/08/30 04:55:24;;;;;;;0.00;0.00;;;;;;;14.80;100.00;98912.00;5001518;28;20035;-90
2023/08/30 04:57:51;;;;;;;0.05;0.05;;;;;;;14.81;100.00;98913.56;4971408;28;20026;-89
2023/08/30 05:00:18;;;;;;;0.00;0.00;;;;;;;14.77;100.00;98890.69;4995910;28;20113;-89
2023/08/30 05:02:46;;;;;;;0.25;0.25;;;;;;;14.73;100.00;98897.72;4956100;28;20046;-89
2023/08/30 05:05:12;;;;;;;0.10;0.10;;;;;;;14.71;100.00;98900.28;4998193;28;20088;-89
2023/08/30 05:07:38;;;;;;;0.10;0.10;;;;;;;14.78;100.00;98911.75;4952549;28;20096;-89
2023/08/30 05:10:06;;;;;;;0.20;0.20;;;;;;;14.80;100.00;98917.59;4962206;28;20038;-90
2023/08/30 05:12:34;;;;;;;0.10;0.10;;;;;;;14.79;100.00;98913.28;4969489;28;20034;-89
2023/08/30 05:14:59;;;;;;;0.00;0.00;;;;;;;14.83;100.00;98925.00;4979008;28;20041;-89
2023/08/30 05:17:28;;;;;;;0.00;0.00;;;;;;;14.79;100.00;98923.69;4967731;28;20045;-89
2023/08/30 05:19:54;;;;;;;0.30;0.30;;;;;;;14.82;100.00;98920.69;4949872;28;20483;-89
2023/08/30 05:22:20;;;;;;;0.08;0.08;;;;;;;14.86;100.00;98923.25;4971275;28;20041;-89
2023/08/30 05:24:47;;;;;;;0.00;0.00;;;;;;;14.83;100.00;98918.66;4954809;28;20033;-89
2023/08/30 05:27:14;;;;;;;0.10;0.10;;;;;;;14.79;100.00;98907.72;4961842;28;20161;-90
2023/08/30 05:29:40;;;;;;;0.17;0.10;;;;;;;14.88;100.00;98915.16;4969748;28;20089;-91
2023/08/30 05:32:06;;;;;;;0.00;0.00;;;;;;;14.86;100.00;98918.44;4969401;28;20165;-94
2023/08/30 05:34:37;;;;;;;1.75;0.38;;;;;;;14.80;100.00;98909.22;4969320;28;20074;-90
2023/08/30 05:37:05;;;;;;;0.00;0.00;;;;;;;14.89;100.00;98923.03;4964020;28;20509;-91
2023/08/30 05:39:45;;;;;;;0.05;0.05;;;;;;;14.93;100.00;98929.16;4966174;28;20042;-91
2023/08/30 05:42:11;;;;;;;1.65;0.28;;;;;;;14.90;100.00;98924.56;4951429;28;20092;-90
2023/08/30 05:44:36;;;;;;;0.35;0.30;;;;;;;14.75;100.00;98912.75;4970306;28;20029;-90
2023/08/30 05:47:05;;;;;;;0.05;0.05;;;;;;;14.86;100.00;98937.97;4989411;28;20523;-91
2023/08/30 05:49:31;;;;;;;0.00;0.00;;;;;;;14.84;100.00;98926.53;4952161;28;20109;-91
2023/08/30 05:51:56;;;;;;;0.20;0.20;;;;;;;14.77;100.00;98917.81;4970556;28;20022;-90
2023/08/30 05:54:22;;;;;;;0.10;0.10;;;;;;;14.88;100.00;98927.06;4954488;28;20034;-90
2023/08/30 05:56:48;;;;;;;0.13;0.13;;;;;;;14.98;100.00;98938.84;4977100;28;20082;-89
2023/08/30 05:59:13;;;;;;;0.00;0.00;;;;;;;14.91;100.00;98923.31;4955246;28;20553;-92
2023/08/30 06:01:39;;;;;;;0.10;0.10;;;;;;;14.94;100.00;98930.69;4954165;28;20078;-91
2023/08/30 06:04:04;;;;;;;0.00;0.00;;;;;;;15.03;100.00;98945.75;4969795;28;20042;-91
2023/08/30 06:06:30;;;;;;;0.35;0.35;;;;;;;14.99;100.00;98936.81;4989422;28;20125;-89
2023/08/30 06:08:56;;;;;;;0.25;0.25;;;;;;;14.83;100.00;98911.06;4991168;28;20077;-93
2023/08/30 06:11:21;;;;;;;0.38;0.38;;;;;;;15.06;100.00;98922.41;4990567;28;20042;-91
2023/08/30 06:13:47;;;;;;;0.00;0.00;;;;;;;15.11;100.00;98914.09;4985097;28;20046;-91
2023/08/30 06:16:12;;;;;;;0.20;0.20;;;;;;;15.27;100.00;98926.66;4987399;28;20566;-91
2023/08/30 06:18:38;;;;;;;0.00;0.00;;;;;;;15.27;100.00;98918.28;4988487;28;20106;-91
2023/08/30 06:21:12;;;;;;;0.13;0.10;;;;;;;15.25;100.00;98899.22;4991476;28;20043;-92
2023/08/30 06:23:38;;;;;;;0.10;0.10;;;;;;;15.54;100.00;98931.72;4989453;28;20026;-93
2023/08/30 06:26:03;;;;;;;0.20;0.20;;;;;;;15.47;100.00;98932.16;4989118;28;20038;-92
2023/08/30 06:28:29;;;;;;;0.60;0.60;;;;;;;15.45;100.00;98929.06;4990908;28;20491;-92
2023/08/30 06:30:55;;;;;;;0.05;0.05;;;;;;;15.51;100.00;98946.69;4989611;28;20085;-92
2023/08/30 06:33:20;;;;;;;0.45;0.45;;;;;;;15.47;100.00;98942.56;4974431;28;20073;-92
2023/08/30 06:35:50;;;;;;;0.60;0.60;;;;;;;15.41;100.00;98928.53;4975138;28;20386;-91
2023/08/30 06:38:16;;;;;;;0.17;0.17;;;;;;;15.54;100.00;98942.91;4974862;28;20445;-94
2023/08/30 06:40:45;;;;;;;0.10;0.10;;;;;;;15.50;100.00;98942.38;4992945;28;20077;-92
2023/08/30 06:43:11;;;;;;;0.10;0.10;;;;;;;15.56;100.00;98945.22;4988879;28;20128;-93
2023/08/30 06:45:38;;;;;;;0.00;0.00;;;;;;;15.65;100.00;98954.16;5000523;28;20034;-92
2023/08/30 06:48:05;;;;;;;0.20;0.20;;;;;;;15.69;100.00;98945.56;4991007;28;20022;-91
2023/08/30 06:50:31;;;;;;;0.40;0.20;;;;;;;15.65;100.00;98942.97;4991135;28;20341;-92
2023/08/30 06:52:56;;;;;;;0.00;0.00;;;;;;;15.74;100.00;98940.00;4974667;28;20038;-92
2023/08/30 06:55:22;;;;;;;0.03;0.03;;;;;;;15.89;100.00;98953.81;4991284;28;20545;-93
2023/08/30 06:57:49;;;;;;;0.10;0.10;;;;;;;15.91;100.00;98954.06;4990620;28;20034;-93
2023/08/30 07:00:16;;;;;;;0.15;0.15;;;;;;;15.91;100.00;98956.09;4989205;28;20034;-93
2023/08/30 07:02:45;;;;;;;0.10;0.10;;;;;;;15.95;100.00;98976.22;4977266;28;20027;-93
2023/08/30 07:05:14;;;;;;;0.10;0.10;;;;;;;15.85;100.00;98968.00;4991628;28;20057;-92
2023/08/30 07:07:40;;;;;;;0.10;0.10;;;;;;;16.07;100.00;98980.59;4974774;28;20125;-93
2023/08/30 07:10:06;;;;;;;0.98;0.50;;;;;;;16.09;100.00;98978.09;4974640;28;20113;-93
2023/08/30 07:12:31;;;;;;;0.30;0.30;;;;;;;16.06;100.00;98988.22;4990201;28;20042;-93
2023/08/30 07:14:57;;;;;;;0.10;0.10;;;;;;;16.04;100.00;98967.63;4990164;28;20085;-92
2023/08/30 07:17:23;;;;;;;0.15;0.10;;;;;;;15.98;100.00;98978.00;4990777;28;20486;-94
2023/08/30 07:19:49;;;;;;;0.22;0.22;;;;;;;15.93;100.00;98965.53;4989216;28;20517;-93
2023/08/30 07:22:16;;;;;;;2.80;1.75;;;;;;;16.10;100.00;98988.00;4990468;28;20038;-93
2023/08/30 07:24:43;;;;;;;0.00;0.00;;;;;;;15.92;100.00;98969.59;4990574;28;20030;-92
2023/08/30 07:27:08;;;;;;;0.00;0.00;;;;;;;15.97;100.00;98968.09;5005089;28;20514;-92
2023/08/30 07:29:34;;;;;;;0.05;0.05;;;;;;;16.04;100.00;98962.03;4990089;28;20165;-93
2023/08/30 07:31:59;;;;;;;0.38;0.22;;;;;;;16.19;100.00;98957.03;4972552;28;20046;-93
2023/08/30 07:34:25;;;;;;;0.30;0.30;;;;;;;16.30;100.00;98957.84;4973652;28;20473;-92
2023/08/30 07:36:53;;;;;;;0.00;0.00;;;;;;;16.41;100.00;98959.16;4990528;28;20030;-92
2023/08/30 07:39:19;;;;;;;0.52;0.47;;;;;;;16.52;100.00;98973.97;4974291;28;20106;-91
2023/08/30 07:41:44;;;;;;;1.55;0.40;;;;;;;16.56;100.00;98968.91;4989787;28;20483;-92
2023/08/30 07:44:10;;;;;;;0.63;0.20;;;;;;;16.58;100.00;98963.56;4989371;28;20037;-93
2023/08/30 07:46:36;;;;;;;0.20;0.20;;;;;;;16.76;100.00;98981.97;4989376;28;20405;-93
2023/08/30 07:49:02;;;;;;;0.20;0.20;;;;;;;16.71;100.00;98969.47;4989822;28;20081;-93
2023/08/30 07:51:27;;;;;;;0.43;0.30;;;;;;;16.82;100.00;98979.19;4989974;28;20030;-92
2023/08/30 07:53:53;;;;;;;0.08;0.08;;;;;;;16.91;100.00;98967.72;4989780;28;20044;-92
2023/08/30 07:56:18;;;;;;;0.05;0.05;;;;;;;17.05;100.00;98961.16;4990105;28;20061;-92
2023/08/30 07:58:44;;;;;;;0.05;0.05;;;;;;;17.15;100.00;98959.63;4957410;28;20050;-92
2023/08/30 08:01:10;;;;;;;0.20;0.20;;;;;;;17.33;100.00;98970.34;4972716;28;20030;-92
2023/08/30 08:03:35;;;;;;;0.73;0.50;;;;;;;17.43;100.00;98966.00;4973019;28;20394;-92
2023/08/30 08:06:01;;;;;;;0.13;0.13;;;;;;;17.49;100.00;98969.59;4972431;28;20046;-92
2023/08/30 08:08:27;;;;;;;0.43;0.25;;;;;;;17.53;100.00;98981.31;4989297;28;20046;-92
2023/08/30 08:10:52;;;;;;;0.35;0.35;;;;;;;17.46;100.00;98976.22;4973251;28;20041;-92
2023/08/30 08:13:18;;;;;;;0.30;0.30;;;;;;;17.31;100.00;98953.28;4989489;28;20042;-93
2023/08/30 08:15:44;;;;;;;0.10;0.10;;;;;;;17.52;100.00;98973.41;4988302;28;20446;-93
2023/08/30 08:18:09;;;;;;;0.10;0.10;;;;;;;17.54;100.00;98968.84;4989103;28;20034;-93
2023/08/30 08:20:36;;;;;;;0.40;0.40;;;;;;;17.45;100.00;98980.28;4960609;28;20413;-92
2023/08/30 08:23:03;;;;;;;0.52;0.45;;;;;;;17.36;100.00;98983.34;4989042;28;20042;-92
2023/08/30 08:25:28;;;;;;;0.40;0.40;;;;;;;17.27;100.00;98986.38;4989346;28;20507;-92
2023/08/30 08:27:54;;;;;;;0.32;0.32;;;;;;;17.38;100.00;99002.47;4988952;28;20070;-92
2023/08/30 08:30:20;;;;;;;0.15;0.15;;;;;;;17.37;100.00;98989.72;4989407;28;20038;-93
2023/08/30 08:32:47;;;;;;;0.32;0.32;;;;;;;17.47;100.00;99014.19;4987849;28;20033;-93
2023/08/30 08:35:13;;;;;;;0.10;0.10;;;;;;;17.61;100.00;99010.41;4972864;28;20449;-92
2023/08/30 08:37:39;;;;;;;0.40;0.40;;;;;;;17.65;100.00;99005.31;4989217;28;20177;-91
2023/08/30 08:40:08;;;;;;;0.63;0.28;;;;;;;17.68;100.00;99009.13;4989780;28;20034;-93
2023/08/30 08:42:35;;;;;;;0.00;0.00;;;;;;;17.70;100.00;99001.75;4988643;28;20066;-92
2023/08/30 08:45:02;;;;;;;0.00;0.00;;;;;;;17.81;100.00;99000.97;4988503;28;20117;-92
2023/08/30 08:47:30;;;;;;;0.20;0.20;;;;;;;17.99;100.00;99016.50;4972474;28;20050;-92
2023/08/30 08:49:56;;;;;;;0.20;0.20;;;;;;;18.06;100.00;99010.38;5004904;28;20069;-91
2023/08/30 08:52:24;;;;;;;1.13;0.65;;;;;;;18.20;100.00;99006.50;4989004;28;20533;-93
2023/08/30 08:54:50;;;;;;;1.48;0.28;;;;;;;18.36;100.00;99005.69;4989427;28;20031;-92
2023/08/30 08:57:16;;;;;;;0.20;0.20;;;;;;;18.50;100.00;99010.25;4989869;28;20042;-92
2023/08/30 08:59:43;;;;;;;0.75;0.35;;;;;;;18.71;100.00;99021.19;4987654;28;20022;-92
2023/08/30 09:02:10;;;;;;;0.88;0.40;;;;;;;18.86;100.00;99019.56;4986103;28;20042;-92
2023/08/30 10:24:07;;;;;;;0.05;0.05;;;;;;;19.50;100.00;99054.75;4964874;28;20146;-94
2023/08/30 10:26:33;;;;;;;0.90;0.35;;;;;;;19.70;100.00;99052.81;4991525;28;20128;-93
2023/08/30 10:28:59;;;;;;;0.98;0.32;;;;;;;19.77;100.00;99055.06;4978936;28;20137;-93
2023/08/30 10:31:25;;;;;;;0.10;0.10;;;;;;;19.97;100.00;99051.84;4974026;28;20038;-93
2023/08/30 10:33:55;;;;;;;0.10;0.10;;;;;;;20.09;100.00;99052.50;5005571;28;20045;-93
2023/08/30 10:36:23;;;;;;;0.00;0.00;;;;;;;20.23;100.00;99056.94;4991137;28;20049;-93
2023/08/30 10:38:49;;;;;;;0.65;0.65;;;;;;;20.38;100.00;99052.47;4981868;28;20038;-94
2023/08/30 10:41:23;;;;;;;0.57;0.57;;;;;;;20.37;100.00;99048.16;5001847;28;20132;-93
2023/08/30 10:43:51;;;;;;;0.08;0.08;;;;;;;20.41;100.00;99037.34;4988505;28;20101;-93
2023/08/30 10:46:17;;;;;;;0.68;0.20;;;;;;;20.59;100.00;99043.53;4989951;28;20039;-93
2023/08/30 10:48:43;;;;;;;0.35;0.20;;;;;;;20.68;100.00;99046.75;4990377;28;20419;-93
2023/08/30 10:51:37;;;;;;;0.15;0.15;;;;;;;20.87;100.00;99056.00;5001646;28;20046;-92
2023/08/30 10:54:13;;;;;;;1.65;1.55;;;;;;;20.79;100.00;99045.84;4961498;28;20046;-95
2023/08/30 10:56:47;;;;;;;0.40;0.40;;;;;;;20.83;100.00;99047.09;5000462;28;20052;-94
2023/08/30 10:59:17;;;;;;;0.20;0.20;;;;;;;20.75;100.00;99051.03;4985901;28;20052;-95
2023/08/30 11:01:44;;;;;;;1.08;0.50;;;;;;;20.70;100.00;99054.69;4996527;28;20049;-94
2023/08/30 11:04:11;;;;;;;0.38;0.35;;;;;;;20.61;100.00;99049.41;4983938;28;20041;-94
2023/08/30 11:06:38;;;;;;;0.20;0.20;;;;;;;20.86;100.00;99057.31;4978042;28;20505;-93
2023/08/30 11:09:04;;;;;;;0.25;0.25;;;;;;;20.84;100.00;99036.56;4977681;28;20037;-93
2023/08/30 11:11:30;;;;;;;0.32;0.32;;;;;;;21.08;100.00;99039.34;4985192;28;20393;-94
2023/08/30 11:14:06;;;;;;;0.20;0.20;;;;;;;21.21;100.00;99027.41;4982710;28;20490;-94
2023/08/30 11:16:34;;;;;;;0.75;0.60;;;;;;;21.51;100.00;99039.28;4977293;28;20044;-94
2023/08/30 11:19:02;;;;;;;0.20;0.15;;;;;;;21.58;100.00;99043.53;4977355;28;20129;-94
2023/08/30 11:21:30;;;;;;;0.43;0.40;;;;;;;21.67;99.18;99031.84;4982499;28;20494;-94
2023/08/30 11:23:55;;;;;;;0.40;0.40;;;;;;;21.54;98.82;99034.59;4986325;28;20246;-94
2023/08/30 11:26:21;;;;;;;0.30;0.30;;;;;;;21.57;100.00;99039.94;4958569;28;20566;-93
2023/08/30 11:28:48;;;;;;;0.28;0.25;;;;;;;21.58;96.00;99040.69;4977965;28;20034;-95
2023/08/30 11:31:22;;;;;;;0.10;0.10;;;;;;;21.63;100.00;99042.69;4976542;28;20068;-94
2023/08/30 11:33:58;;;;;;;0.40;0.25;;;;;;;21.99;94.88;99041.09;4995311;28;20139;-95
2023/08/30 11:36:29;;;;;;;0.40;0.40;;;;;;;21.87;92.74;99039.72;4981812;28;20120;-94
2023/08/30 11:38:56;;;;;;;0.47;0.40;;;;;;;22.05;98.46;99050.22;4976203;28;20046;-95
2023/08/30 11:41:22;;;;;;;0.20;0.20;;;;;;;22.08;91.05;99049.13;4976437;28;20475;-93
2023/08/30 11:43:48;;;;;;;0.40;0.40;;;;;;;22.06;90.70;99051.75;4975320;28;20557;-95
2023/08/30 11:46:14;;;;;;;0.35;0.35;;;;;;;22.22;92.83;99059.16;4971118;28;20041;-95
2023/08/30 11:48:43;;;;;;;0.43;0.40;;;;;;;22.41;89.40;99041.34;4982971;28;20038;-94
2023/08/30 11:51:09;;;;;;;0.22;0.22;;;;;;;22.46;85.69;99046.13;4975908;28;20065;-94
2023/08/30 11:53:34;;;;;;;0.35;0.35;;;;;;;22.37;88.30;99043.72;4978796;28;20045;-94
2023/08/30 11:56:00;;;;;;;0.73;0.73;;;;;;;22.53;85.60;99042.66;4967444;28;20081;-94
2023/08/30 11:58:26;;;;;;;0.10;0.10;;;;;;;22.34;87.14;99042.75;4999380;28;20046;-95
2023/08/30 12:00:54;;;;;;;0.10;0.10;;;;;;;22.26;88.67;99013.63;4975998;28;20519;-94
2023/08/30 12:03:20;;;;;;;1.00;0.47;;;;;;;22.45;86.16;99024.81;4993123;28;20054;-93
2023/08/30 12:05:50;;;;;;;0.08;0.08;;;;;;;22.68;83.49;99026.72;4960108;28;20048;-94
2023/08/30 12:08:34;;;;;;;0.70;0.47;;;;;;;22.96;85.75;99009.16;4963443;28;20042;-94
2023/08/30 12:11:01;;;;;;;0.10;0.10;;;;;;;23.54;83.75;99027.94;4967365;28;20104;-95
2023/08/30 12:13:28;;;;;;;0.10;0.10;;;;;;;23.77;80.58;99014.78;4987957;28;20095;-95
2023/08/30 12:15:55;;;;;;;0.95;0.30;;;;;;;23.95;77.61;99010.19;4983219;28;20041;-95
2023/08/30 12:18:28;;;;;;;0.30;0.30;;;;;;;23.81;77.47;98980.44;4983240;28;20350;-94
2023/08/30 12:20:59;;;;;;;0.60;0.60;;;;;;;23.80;81.38;99002.34;4960030;28;20049;-96
2023/08/30 12:23:26;;;;;;;0.20;0.20;;;;;;;23.53;82.78;98995.28;4971447;28;20132;-95
2023/08/30 12:25:59;;;;;;;0.40;0.40;;;;;;;23.88;77.49;98994.66;4985036;28;20185;-94
2023/08/30 12:28:28;;;;;;;0.10;0.10;;;;;;;23.67;75.00;99005.22;5000787;28;20073;-94
2023/08/30 12:30:55;;;;;;;0.15;0.13;;;;;;;23.35;76.53;98993.38;4991216;28;20113;-95
2023/08/30 12:33:21;;;;;;;0.20;0.17;;;;;;;22.96;80.08;99014.81;4974278;28;20048;-95
2023/08/30 12:35:47;;;;;;;0.10;0.10;;;;;;;22.93;84.87;98996.09;4982401;28;20085;-95
2023/08/30 12:38:17;;;;;;;0.30;0.30;;;;;;;23.17;83.60;98990.16;4982734;28;20506;-96
2023/08/30 12:40:44;;;;;;;0.32;0.30;;;;;;;23.14;77.00;98998.97;4984895;28;20502;-94
2023/08/30 12:43:10;;;;;;;0.57;0.57;;;;;;;22.56;81.10;98987.88;4979561;28;20090;-93
2023/08/30 12:45:37;;;;;;;0.00;0.00;;;;;;;22.55;81.96;98989.19;4978905;28;20405;-93